sensor_id;sensor_type;location;lat;lon;timestamp;P1;durP1;ratioP1;P2;durP2;ratioP2
18411;SDS011;27097;51.738;19.472;2023-07-24T00:00:13;4.38;;;3.20;;
18411;SDS011;27097;51.738;19.472;2023-07-24T00:02:40;5.63;;;3.30;;
18411;SDS011;27097;51.738;19.472;2023-07-24T00:05:08;4.95;;;3.35;;
18411;SDS011;27097;51.738;19.472;2023-07-24T00:07:35;4.65;;;3.25;;
18411;SDS011;27097;51.738;19.472;2023-07-24T00:10:02;5.63;;;3.72;;
18411;SDS011;27097;51.738;19.472;2023-07-24T00:12:29;5.72;;;3.40;;
18411;SDS011;27097;51.738;19.472;2023-07-24T00:14:56;5.15;;;3.17;;
18411;SDS011;27097;51.738;19.472;2023-07-24T00:17:25;5.60;;;3.42;;
18411;SDS011;27097;51.738;19.472;2023-07-24T00:19:52;5.15;;;3.20;;
18411;SDS011;27097;51.738;19.472;2023-07-24T00:22:18;6.03;;;3.50;;
18411;SDS011;27097;51.738;19.472;2023-07-24T00:24:45;6.40;;;3.28;;
18411;SDS011;27097;51.738;19.472;2023-07-24T00:27:12;4.65;;;3.20;;
18411;SDS011;27097;51.738;19.472;2023-07-24T00:29:40;5.00;;;3.15;;
18411;SDS011;27097;51.738;19.472;2023-07-24T00:32:07;6.85;;;3.67;;
18411;SDS011;27097;51.738;19.472;2023-07-24T00:34:36;5.82;;;3.35;;
18411;SDS011;27097;51.738;19.472;2023-07-24T00:37:02;4.95;;;3.38;;
18411;SDS011;27097;51.738;19.472;2023-07-24T00:39:30;4.40;;;3.10;;
18411;SDS011;27097;51.738;19.472;2023-07-24T00:41:56;5.63;;;3.00;;
18411;SDS011;27097;51.738;19.472;2023-07-24T00:44:23;7.05;;;3.40;;
18411;SDS011;27097;51.738;19.472;2023-07-24T00:46:59;4.65;;;3.50;;
18411;SDS011;27097;51.738;19.472;2023-07-24T00:49:26;4.75;;;3.08;;
18411;SDS011;27097;51.738;19.472;2023-07-24T00:51:55;4.93;;;3.70;;
18411;SDS011;27097;51.738;19.472;2023-07-24T00:54:22;4.95;;;3.22;;
18411;SDS011;27097;51.738;19.472;2023-07-24T00:56:49;6.47;;;3.20;;
18411;SDS011;27097;51.738;19.472;2023-07-24T00:59:16;4.72;;;3.45;;
18411;SDS011;27097;51.738;19.472;2023-07-24T01:01:43;8.45;;;3.30;;
18411;SDS011;27097;51.738;19.472;2023-07-24T01:04:12;5.30;;;3.50;;
18411;SDS011;27097;51.738;19.472;2023-07-24T01:06:40;4.90;;;3.08;;
18411;SDS011;27097;51.738;19.472;2023-07-24T01:09:08;6.00;;;3.45;;
18411;SDS011;27097;51.738;19.472;2023-07-24T01:11:36;4.43;;;3.03;;
18411;SDS011;27097;51.738;19.472;2023-07-24T01:14:08;4.80;;;3.30;;
18411;SDS011;27097;51.738;19.472;2023-07-24T01:16:40;4.65;;;3.30;;
18411;SDS011;27097;51.738;19.472;2023-07-24T01:19:11;5.85;;;3.38;;
18411;SDS011;27097;51.738;19.472;2023-07-24T01:21:44;6.50;;;3.47;;
18411;SDS011;27097;51.738;19.472;2023-07-24T01:24:36;6.93;;;3.75;;
18411;SDS011;27097;51.738;19.472;2023-07-24T01:27:19;6.57;;;3.40;;
18411;SDS011;27097;51.738;19.472;2023-07-24T01:29:47;4.32;;;3.20;;
18411;SDS011;27097;51.738;19.472;2023-07-24T01:32:14;5.30;;;3.42;;
18411;SDS011;27097;51.738;19.472;2023-07-24T01:34:41;5.10;;;3.30;;
18411;SDS011;27097;51.738;19.472;2023-07-24T01:37:08;5.45;;;3.25;;
18411;SDS011;27097;51.738;19.472;2023-07-24T01:39:36;4.78;;;3.33;;
18411;SDS011;27097;51.738;19.472;2023-07-24T01:42:04;6.22;;;3.58;;
18411;SDS011;27097;51.738;19.472;2023-07-24T01:44:33;4.75;;;3.10;;
18411;SDS011;27097;51.738;19.472;2023-07-24T01:47:00;4.20;;;3.20;;
18411;SDS011;27097;51.738;19.472;2023-07-24T01:49:27;5.40;;;3.35;;
18411;SDS011;27097;51.738;19.472;2023-07-24T01:51:53;3.83;;;2.92;;
18411;SDS011;27097;51.738;19.472;2023-07-24T01:54:21;6.75;;;3.25;;
18411;SDS011;27097;51.738;19.472;2023-07-24T01:56:48;4.90;;;3.30;;
18411;SDS011;27097;51.738;19.472;2023-07-24T01:59:15;3.97;;;2.95;;
18411;SDS011;27097;51.738;19.472;2023-07-24T02:01:43;4.35;;;2.83;;
18411;SDS011;27097;51.738;19.472;2023-07-24T02:04:10;4.75;;;3.22;;
18411;SDS011;27097;51.738;19.472;2023-07-24T02:06:37;5.18;;;3.25;;
18411;SDS011;27097;51.738;19.472;2023-07-24T02:09:04;4.65;;;3.17;;
18411;SDS011;27097;51.738;19.472;2023-07-24T02:11:31;4.63;;;3.05;;
18411;SDS011;27097;51.738;19.472;2023-07-24T02:13:58;4.72;;;3.35;;
18411;SDS011;27097;51.738;19.472;2023-07-24T02:16:25;4.22;;;3.20;;
18411;SDS011;27097;51.738;19.472;2023-07-24T02:18:54;5.82;;;3.20;;
18411;SDS011;27097;51.738;19.472;2023-07-24T02:24:09;6.00;;;3.20;;
18411;SDS011;27097;51.738;19.472;2023-07-24T02:29:52;4.50;;;3.03;;
18411;SDS011;27097;51.738;19.472;2023-07-24T02:32:19;3.88;;;2.88;;
18411;SDS011;27097;51.738;19.472;2023-07-24T02:34:49;6.28;;;3.13;;
18411;SDS011;27097;51.738;19.472;2023-07-24T02:37:16;6.00;;;3.03;;
18411;SDS011;27097;51.738;19.472;2023-07-24T02:39:43;4.63;;;3.47;;
18411;SDS011;27097;51.738;19.472;2023-07-24T02:42:10;4.40;;;3.20;;
18411;SDS011;27097;51.738;19.472;2023-07-24T02:44:37;5.20;;;3.30;;
18411;SDS011;27097;51.738;19.472;2023-07-24T02:47:04;6.20;;;3.30;;
18411;SDS011;27097;51.738;19.472;2023-07-24T02:49:32;4.63;;;3.10;;
18411;SDS011;27097;51.738;19.472;2023-07-24T02:52:01;5.43;;;3.13;;
18411;SDS011;27097;51.738;19.472;2023-07-24T02:54:28;4.63;;;3.00;;
18411;SDS011;27097;51.738;19.472;2023-07-24T02:56:55;8.05;;;2.85;;
18411;SDS011;27097;51.738;19.472;2023-07-24T02:59:23;4.63;;;3.00;;
18411;SDS011;27097;51.738;19.472;2023-07-24T03:01:50;4.72;;;3.05;;
18411;SDS011;27097;51.738;19.472;2023-07-24T03:04:16;4.63;;;3.33;;
18411;SDS011;27097;51.738;19.472;2023-07-24T03:06:43;5.72;;;3.17;;
18411;SDS011;27097;51.738;19.472;2023-07-24T03:09:13;6.22;;;2.90;;
18411;SDS011;27097;51.738;19.472;2023-07-24T03:11:39;5.72;;;3.15;;
18411;SDS011;27097;51.738;19.472;2023-07-24T03:14:06;5.65;;;3.15;;
18411;SDS011;27097;51.738;19.472;2023-07-24T03:16:34;4.57;;;3.17;;
18411;SDS011;27097;51.738;19.472;2023-07-24T03:19:01;5.38;;;3.20;;
18411;SDS011;27097;51.738;19.472;2023-07-24T03:21:27;4.88;;;3.30;;
18411;SDS011;27097;51.738;19.472;2023-07-24T03:23:54;4.45;;;3.08;;
18411;SDS011;27097;51.738;19.472;2023-07-24T03:26:23;5.75;;;3.28;;
18411;SDS011;27097;51.738;19.472;2023-07-24T03:28:49;4.55;;;3.20;;
18411;SDS011;27097;51.738;19.472;2023-07-24T03:31:16;5.88;;;3.30;;
18411;SDS011;27097;51.738;19.472;2023-07-24T03:33:43;5.25;;;3.20;;
18411;SDS011;27097;51.738;19.472;2023-07-24T03:36:10;3.85;;;3.08;;
18411;SDS011;27097;51.738;19.472;2023-07-24T03:41:29;3.70;;;3.10;;
18411;SDS011;27097;51.738;19.472;2023-07-24T03:43:55;6.13;;;3.35;;
18411;SDS011;27097;51.738;19.472;2023-07-24T03:46:22;4.60;;;3.00;;
18411;SDS011;27097;51.738;19.472;2023-07-24T03:48:49;4.20;;;3.03;;
18411;SDS011;27097;51.738;19.472;2023-07-24T03:51:16;4.13;;;3.05;;
18411;SDS011;27097;51.738;19.472;2023-07-24T03:53:43;4.10;;;3.00;;
18411;SDS011;27097;51.738;19.472;2023-07-24T03:56:10;3.47;;;2.70;;
18411;SDS011;27097;51.738;19.472;2023-07-24T03:58:38;6.07;;;3.38;;
18411;SDS011;27097;51.738;19.472;2023-07-24T04:01:05;4.65;;;3.00;;
18411;SDS011;27097;51.738;19.472;2023-07-24T04:03:32;6.00;;;3.30;;
18411;SDS011;27097;51.738;19.472;2023-07-24T04:05:59;4.88;;;3.30;;
18411;SDS011;27097;51.738;19.472;2023-07-24T04:08:26;4.47;;;3.05;;
18411;SDS011;27097;51.738;19.472;2023-07-24T04:10:53;6.95;;;3.20;;
18411;SDS011;27097;51.738;19.472;2023-07-24T04:13:21;4.93;;;3.10;;
18411;SDS011;27097;51.738;19.472;2023-07-24T04:15:49;4.90;;;3.10;;
18411;SDS011;27097;51.738;19.472;2023-07-24T04:18:16;5.15;;;3.30;;
18411;SDS011;27097;51.738;19.472;2023-07-24T04:20:43;6.07;;;3.20;;
18411;SDS011;27097;51.738;19.472;2023-07-24T04:23:10;4.90;;;3.40;;
18411;SDS011;27097;51.738;19.472;2023-07-24T04:25:39;5.28;;;3.20;;
18411;SDS011;27097;51.738;19.472;2023-07-24T04:28:06;7.40;;;3.47;;
18411;SDS011;27097;51.738;19.472;2023-07-24T04:30:33;5.65;;;3.72;;
18411;SDS011;27097;51.738;19.472;2023-07-24T04:33:02;5.57;;;3.28;;
18411;SDS011;27097;51.738;19.472;2023-07-24T04:35:29;5.38;;;3.17;;
18411;SDS011;27097;51.738;19.472;2023-07-24T04:37:56;4.95;;;3.17;;
18411;SDS011;27097;51.738;19.472;2023-07-24T04:40:23;5.35;;;3.30;;
18411;SDS011;27097;51.738;19.472;2023-07-24T04:42:50;4.93;;;2.88;;
18411;SDS011;27097;51.738;19.472;2023-07-24T04:45:17;5.10;;;3.38;;
18411;SDS011;27097;51.738;19.472;2023-07-24T04:47:44;4.28;;;3.13;;
18411;SDS011;27097;51.738;19.472;2023-07-24T04:50:12;5.10;;;3.63;;
18411;SDS011;27097;51.738;19.472;2023-07-24T04:52:39;5.72;;;3.42;;
18411;SDS011;27097;51.738;19.472;2023-07-24T04:55:06;5.03;;;3.15;;
18411;SDS011;27097;51.738;19.472;2023-07-24T04:57:33;5.18;;;3.70;;
18411;SDS011;27097;51.738;19.472;2023-07-24T05:00:00;4.03;;;2.97;;
18411;SDS011;27097;51.738;19.472;2023-07-24T05:02:27;4.88;;;3.25;;
18411;SDS011;27097;51.738;19.472;2023-07-24T05:04:54;5.03;;;3.08;;
18411;SDS011;27097;51.738;19.472;2023-07-24T05:07:22;5.63;;;3.05;;
18411;SDS011;27097;51.738;19.472;2023-07-24T05:09:49;4.53;;;3.22;;
18411;SDS011;27097;51.738;19.472;2023-07-24T05:12:16;5.28;;;3.13;;
18411;SDS011;27097;51.738;19.472;2023-07-24T05:14:43;5.80;;;3.38;;
18411;SDS011;27097;51.738;19.472;2023-07-24T05:17:09;5.82;;;3.38;;
18411;SDS011;27097;51.738;19.472;2023-07-24T05:19:36;6.25;;;3.20;;
18411;SDS011;27097;51.738;19.472;2023-07-24T05:22:03;4.57;;;2.92;;
18411;SDS011;27097;51.738;19.472;2023-07-24T05:24:32;4.88;;;2.80;;
18411;SDS011;27097;51.738;19.472;2023-07-24T05:26:59;4.78;;;3.20;;
18411;SDS011;27097;51.738;19.472;2023-07-24T05:29:26;4.75;;;3.03;;
18411;SDS011;27097;51.738;19.472;2023-07-24T05:31:52;5.57;;;3.28;;
18411;SDS011;27097;51.738;19.472;2023-07-24T05:34:19;4.72;;;3.47;;
18411;SDS011;27097;51.738;19.472;2023-07-24T05:36:46;6.55;;;3.22;;
18411;SDS011;27097;51.738;19.472;2023-07-24T05:39:13;5.50;;;3.10;;
18411;SDS011;27097;51.738;19.472;2023-07-24T05:41:41;5.22;;;3.25;;
18411;SDS011;27097;51.738;19.472;2023-07-24T05:44:08;8.05;;;3.45;;
18411;SDS011;27097;51.738;19.472;2023-07-24T05:46:35;8.00;;;3.70;;
18411;SDS011;27097;51.738;19.472;2023-07-24T05:49:02;4.78;;;2.85;;
18411;SDS011;27097;51.738;19.472;2023-07-24T05:51:29;7.25;;;3.25;;
18411;SDS011;27097;51.738;19.472;2023-07-24T05:53:56;4.95;;;3.17;;
18411;SDS011;27097;51.738;19.472;2023-07-24T05:56:23;5.35;;;3.17;;
18411;SDS011;27097;51.738;19.472;2023-07-24T05:58:51;5.82;;;3.13;;
18411;SDS011;27097;51.738;19.472;2023-07-24T06:01:18;4.35;;;3.00;;
18411;SDS011;27097;51.738;19.472;2023-07-24T06:03:45;4.50;;;3.00;;
18411;SDS011;27097;51.738;19.472;2023-07-24T06:06:12;5.38;;;3.00;;
18411;SDS011;27097;51.738;19.472;2023-07-24T06:08:39;4.68;;;2.90;;
18411;SDS011;27097;51.738;19.472;2023-07-24T06:11:06;6.95;;;3.15;;
18411;SDS011;27097;51.738;19.472;2023-07-24T06:13:32;5.38;;;3.13;;
18411;SDS011;27097;51.738;19.472;2023-07-24T06:16:01;4.38;;;3.03;;
18411;SDS011;27097;51.738;19.472;2023-07-24T06:18:28;7.45;;;3.00;;
18411;SDS011;27097;51.738;19.472;2023-07-24T06:20:55;5.15;;;2.95;;
18411;SDS011;27097;51.738;19.472;2023-07-24T06:23:22;5.88;;;3.22;;
18411;SDS011;27097;51.738;19.472;2023-07-24T06:25:49;7.65;;;2.65;;
18411;SDS011;27097;51.738;19.472;2023-07-24T06:28:16;3.67;;;2.75;;
18411;SDS011;27097;51.738;19.472;2023-07-24T06:30:43;6.25;;;3.35;;
18411;SDS011;27097;51.738;19.472;2023-07-24T06:33:12;3.97;;;2.85;;
18411;SDS011;27097;51.738;19.472;2023-07-24T06:35:39;8.38;;;2.90;;
18411;SDS011;27097;51.738;19.472;2023-07-24T06:38:06;6.05;;;2.97;;
18411;SDS011;27097;51.738;19.472;2023-07-24T06:40:34;3.95;;;2.90;;
18411;SDS011;27097;51.738;19.472;2023-07-24T06:43:01;3.70;;;2.65;;
18411;SDS011;27097;51.738;19.472;2023-07-24T06:45:28;3.95;;;2.65;;
18411;SDS011;27097;51.738;19.472;2023-07-24T06:47:55;4.68;;;3.03;;
18411;SDS011;27097;51.738;19.472;2023-07-24T06:50:23;4.70;;;2.90;;
18411;SDS011;27097;51.738;19.472;2023-07-24T06:52:50;4.35;;;2.70;;
18411;SDS011;27097;51.738;19.472;2023-07-24T06:55:18;5.20;;;2.55;;
18411;SDS011;27097;51.738;19.472;2023-07-24T06:57:45;4.07;;;2.58;;
18411;SDS011;27097;51.738;19.472;2023-07-24T07:00:13;6.28;;;3.00;;
18411;SDS011;27097;51.738;19.472;2023-07-24T07:02:40;6.45;;;2.70;;
18411;SDS011;27097;51.738;19.472;2023-07-24T07:05:07;4.43;;;2.38;;
18411;SDS011;27097;51.738;19.472;2023-07-24T07:07:36;7.68;;;2.83;;
18411;SDS011;27097;51.738;19.472;2023-07-24T07:10:04;3.97;;;2.50;;
18411;SDS011;27097;51.738;19.472;2023-07-24T07:12:32;5.60;;;2.72;;
18411;SDS011;27097;51.738;19.472;2023-07-24T07:14:59;4.47;;;2.65;;
18411;SDS011;27097;51.738;19.472;2023-07-24T07:17:26;6.10;;;2.38;;
18411;SDS011;27097;51.738;19.472;2023-07-24T07:19:53;4.60;;;2.90;;
18411;SDS011;27097;51.738;19.472;2023-07-24T07:22:21;4.15;;;2.42;;
18411;SDS011;27097;51.738;19.472;2023-07-24T07:24:49;3.78;;;2.40;;
18411;SDS011;27097;51.738;19.472;2023-07-24T07:27:16;3.47;;;2.47;;
18411;SDS011;27097;51.738;19.472;2023-07-24T07:29:43;4.30;;;2.47;;
18411;SDS011;27097;51.738;19.472;2023-07-24T07:32:10;4.65;;;2.60;;
18411;SDS011;27097;51.738;19.472;2023-07-24T07:34:37;4.28;;;2.53;;
18411;SDS011;27097;51.738;19.472;2023-07-24T07:37:05;4.25;;;2.60;;
18411;SDS011;27097;51.738;19.472;2023-07-24T07:39:32;5.85;;;2.50;;
18411;SDS011;27097;51.738;19.472;2023-07-24T07:42:00;3.63;;;2.35;;
18411;SDS011;27097;51.738;19.472;2023-07-24T07:44:28;4.88;;;2.42;;
18411;SDS011;27097;51.738;19.472;2023-07-24T07:46:55;2.97;;;2.10;;
18411;SDS011;27097;51.738;19.472;2023-07-24T07:49:21;3.78;;;2.50;;
18411;SDS011;27097;51.738;19.472;2023-07-24T07:51:48;2.97;;;2.28;;
18411;SDS011;27097;51.738;19.472;2023-07-24T07:54:15;3.70;;;2.30;;
18411;SDS011;27097;51.738;19.472;2023-07-24T07:56:42;4.03;;;2.50;;
18411;SDS011;27097;51.738;19.472;2023-07-24T07:59:11;4.25;;;2.20;;
18411;SDS011;27097;51.738;19.472;2023-07-24T08:01:38;5.15;;;2.50;;
18411;SDS011;27097;51.738;19.472;2023-07-24T08:04:05;2.95;;;2.35;;
18411;SDS011;27097;51.738;19.472;2023-07-24T08:06:32;3.95;;;2.47;;
18411;SDS011;27097;51.738;19.472;2023-07-24T08:08:59;4.75;;;2.53;;
18411;SDS011;27097;51.738;19.472;2023-07-24T08:11:26;3.85;;;2.40;;
18411;SDS011;27097;51.738;19.472;2023-07-24T08:13:53;4.30;;;2.40;;
18411;SDS011;27097;51.738;19.472;2023-07-24T08:16:21;4.13;;;2.15;;
18411;SDS011;27097;51.738;19.472;2023-07-24T08:18:48;3.22;;;2.30;;
18411;SDS011;27097;51.738;19.472;2023-07-24T08:21:16;4.22;;;2.35;;
18411;SDS011;27097;51.738;19.472;2023-07-24T08:23:43;4.25;;;2.45;;
18411;SDS011;27097;51.738;19.472;2023-07-24T08:26:13;3.83;;;2.10;;
18411;SDS011;27097;51.738;19.472;2023-07-24T08:28:40;5.13;;;2.30;;
18411;SDS011;27097;51.738;19.472;2023-07-24T08:31:08;6.35;;;2.63;;
18411;SDS011;27097;51.738;19.472;2023-07-24T08:33:37;4.75;;;2.25;;
18411;SDS011;27097;51.738;19.472;2023-07-24T08:36:04;3.60;;;2.53;;
18411;SDS011;27097;51.738;19.472;2023-07-24T08:38:32;3.22;;;2.17;;
18411;SDS011;27097;51.738;19.472;2023-07-24T08:41:00;2.88;;;2.22;;
18411;SDS011;27097;51.738;19.472;2023-07-24T08:43:28;4.80;;;2.40;;
18411;SDS011;27097;51.738;19.472;2023-07-24T08:45:57;4.15;;;2.40;;
18411;SDS011;27097;51.738;19.472;2023-07-24T08:48:25;4.20;;;2.70;;
18411;SDS011;27097;51.738;19.472;2023-07-24T08:50:55;4.63;;;2.40;;
18411;SDS011;27097;51.738;19.472;2023-07-24T08:53:23;6.20;;;2.35;;
18411;SDS011;27097;51.738;19.472;2023-07-24T08:55:50;3.28;;;2.53;;
18411;SDS011;27097;51.738;19.472;2023-07-24T08:58:20;3.83;;;2.45;;
18411;SDS011;27097;51.738;19.472;2023-07-24T09:00:47;3.00;;;2.20;;
18411;SDS011;27097;51.738;19.472;2023-07-24T09:03:16;3.85;;;2.20;;
18411;SDS011;27097;51.738;19.472;2023-07-24T09:05:43;3.33;;;2.28;;
18411;SDS011;27097;51.738;19.472;2023-07-24T09:08:12;4.65;;;2.40;;
18411;SDS011;27097;51.738;19.472;2023-07-24T09:10:40;3.60;;;2.55;;
18411;SDS011;27097;51.738;19.472;2023-07-24T09:13:07;5.20;;;2.50;;
18411;SDS011;27097;51.738;19.472;2023-07-24T09:15:40;3.45;;;2.58;;
18411;SDS011;27097;51.738;19.472;2023-07-24T09:18:08;5.53;;;2.45;;
18411;SDS011;27097;51.738;19.472;2023-07-24T09:20:38;3.47;;;2.30;;
18411;SDS011;27097;51.738;19.472;2023-07-24T09:23:06;3.53;;;2.45;;
18411;SDS011;27097;51.738;19.472;2023-07-24T09:25:36;4.15;;;2.33;;
18411;SDS011;27097;51.738;19.472;2023-07-24T09:28:11;5.45;;;2.70;;
18411;SDS011;27097;51.738;19.472;2023-07-24T09:30:39;3.75;;;2.50;;
18411;SDS011;27097;51.738;19.472;2023-07-24T09:33:06;3.97;;;2.78;;
18411;SDS011;27097;51.738;19.472;2023-07-24T09:35:33;4.38;;;2.70;;
18411;SDS011;27097;51.738;19.472;2023-07-24T09:38:07;5.30;;;2.60;;
18411;SDS011;27097;51.738;19.472;2023-07-24T09:40:39;6.15;;;2.75;;
18411;SDS011;27097;51.738;19.472;2023-07-24T09:43:17;5.03;;;2.70;;
18411;SDS011;27097;51.738;19.472;2023-07-24T09:45:45;5.50;;;2.53;;
18411;SDS011;27097;51.738;19.472;2023-07-24T09:48:13;5.93;;;2.55;;
18411;SDS011;27097;51.738;19.472;2023-07-24T09:50:41;3.63;;;2.78;;
18411;SDS011;27097;51.738;19.472;2023-07-24T09:53:12;5.00;;;2.95;;
18411;SDS011;27097;51.738;19.472;2023-07-24T09:55:45;5.18;;;2.50;;
18411;SDS011;27097;51.738;19.472;2023-07-24T09:58:18;3.75;;;2.95;;
18411;SDS011;27097;51.738;19.472;2023-07-24T10:00:46;3.35;;;2.60;;
18411;SDS011;27097;51.738;19.472;2023-07-24T10:03:15;4.63;;;2.60;;
18411;SDS011;27097;51.738;19.472;2023-07-24T10:05:43;4.32;;;3.00;;
18411;SDS011;27097;51.738;19.472;2023-07-24T10:08:11;4.13;;;2.83;;
18411;SDS011;27097;51.738;19.472;2023-07-24T10:10:39;7.25;;;3.13;;
18411;SDS011;27097;51.738;19.472;2023-07-24T10:13:08;4.47;;;2.78;;
18411;SDS011;27097;51.738;19.472;2023-07-24T10:15:38;3.47;;;2.40;;
18411;SDS011;27097;51.738;19.472;2023-07-24T10:18:06;4.82;;;3.13;;
18411;SDS011;27097;51.738;19.472;2023-07-24T10:20:34;4.95;;;2.70;;
18411;SDS011;27097;51.738;19.472;2023-07-24T10:23:02;4.80;;;3.10;;
18411;SDS011;27097;51.738;19.472;2023-07-24T10:25:29;4.47;;;2.75;;
18411;SDS011;27097;51.738;19.472;2023-07-24T10:28:01;3.75;;;2.50;;
18411;SDS011;27097;51.738;19.472;2023-07-24T10:30:34;4.15;;;2.90;;
18411;SDS011;27097;51.738;19.472;2023-07-24T10:33:08;3.65;;;2.63;;
18411;SDS011;27097;51.738;19.472;2023-07-24T10:35:38;3.92;;;2.70;;
18411;SDS011;27097;51.738;19.472;2023-07-24T10:38:09;4.20;;;3.08;;
18411;SDS011;27097;51.738;19.472;2023-07-24T10:40:37;5.35;;;2.83;;
18411;SDS011;27097;51.738;19.472;2023-07-24T10:43:06;7.15;;;3.17;;
18411;SDS011;27097;51.738;19.472;2023-07-24T10:45:48;4.22;;;2.78;;
18411;SDS011;27097;51.738;19.472;2023-07-24T10:48:16;4.88;;;2.97;;
18411;SDS011;27097;51.738;19.472;2023-07-24T10:50:44;4.68;;;2.95;;
18411;SDS011;27097;51.738;19.472;2023-07-24T10:53:13;4.03;;;2.95;;
18411;SDS011;27097;51.738;19.472;2023-07-24T10:55:42;4.18;;;2.80;;
18411;SDS011;27097;51.738;19.472;2023-07-24T10:58:10;6.07;;;3.10;;
18411;SDS011;27097;51.738;19.472;2023-07-24T11:00:38;5.65;;;2.90;;
18411;SDS011;27097;51.738;19.472;2023-07-24T11:03:09;5.30;;;2.90;;
18411;SDS011;27097;51.738;19.472;2023-07-24T11:05:38;4.28;;;2.97;;
18411;SDS011;27097;51.738;19.472;2023-07-24T11:08:10;4.45;;;2.85;;
18411;SDS011;27097;51.738;19.472;2023-07-24T11:10:43;5.25;;;2.50;;
18411;SDS011;27097;51.738;19.472;2023-07-24T11:13:14;4.28;;;3.17;;
18411;SDS011;27097;51.738;19.472;2023-07-24T11:15:41;4.93;;;3.10;;
18411;SDS011;27097;51.738;19.472;2023-07-24T11:18:09;3.63;;;2.97;;
18411;SDS011;27097;51.738;19.472;2023-07-24T11:20:37;4.10;;;2.78;;
18411;SDS011;27097;51.738;19.472;2023-07-24T11:23:09;5.53;;;2.97;;
18411;SDS011;27097;51.738;19.472;2023-07-24T11:25:36;5.03;;;2.97;;
18411;SDS011;27097;51.738;19.472;2023-07-24T11:28:04;4.40;;;3.05;;
18411;SDS011;27097;51.738;19.472;2023-07-24T11:30:32;3.72;;;2.60;;
18411;SDS011;27097;51.738;19.472;2023-07-24T11:33:00;5.82;;;3.15;;
18411;SDS011;27097;51.738;19.472;2023-07-24T11:35:30;3.97;;;2.90;;
18411;SDS011;27097;51.738;19.472;2023-07-24T11:37:57;4.90;;;3.08;;
18411;SDS011;27097;51.738;19.472;2023-07-24T11:40:30;3.47;;;2.70;;
18411;SDS011;27097;51.738;19.472;2023-07-24T11:42:59;3.80;;;2.80;;
18411;SDS011;27097;51.738;19.472;2023-07-24T11:45:26;4.38;;;2.95;;
18411;SDS011;27097;51.738;19.472;2023-07-24T11:47:54;4.13;;;3.10;;
18411;SDS011;27097;51.738;19.472;2023-07-24T11:50:21;4.43;;;2.88;;
18411;SDS011;27097;51.738;19.472;2023-07-24T11:52:51;6.30;;;3.05;;
18411;SDS011;27097;51.738;19.472;2023-07-24T11:55:19;6.80;;;3.00;;
18411;SDS011;27097;51.738;19.472;2023-07-24T11:57:57;3.88;;;2.83;;
18411;SDS011;27097;51.738;19.472;2023-07-24T12:00:25;5.30;;;3.08;;
18411;SDS011;27097;51.738;19.472;2023-07-24T12:02:53;4.65;;;2.90;;
18411;SDS011;27097;51.738;19.472;2023-07-24T12:05:24;4.00;;;2.88;;
18411;SDS011;27097;51.738;19.472;2023-07-24T12:07:54;5.45;;;3.00;;
18411;SDS011;27097;51.738;19.472;2023-07-24T12:10:25;4.25;;;2.72;;
18411;SDS011;27097;51.738;19.472;2023-07-24T12:12:53;3.90;;;2.63;;
18411;SDS011;27097;51.738;19.472;2023-07-24T12:15:24;4.78;;;2.97;;
18411;SDS011;27097;51.738;19.472;2023-07-24T12:17:52;4.75;;;3.15;;
18411;SDS011;27097;51.738;19.472;2023-07-24T12:20:19;4.93;;;2.85;;
18411;SDS011;27097;51.738;19.472;2023-07-24T12:22:46;5.07;;;2.80;;
18411;SDS011;27097;51.738;19.472;2023-07-24T12:25:14;5.43;;;3.10;;
18411;SDS011;27097;51.738;19.472;2023-07-24T12:27:41;3.65;;;2.70;;
18411;SDS011;27097;51.738;19.472;2023-07-24T12:30:08;5.07;;;3.17;;
18411;SDS011;27097;51.738;19.472;2023-07-24T12:32:35;6.65;;;2.88;;
18411;SDS011;27097;51.738;19.472;2023-07-24T12:35:03;7.10;;;2.92;;
18411;SDS011;27097;51.738;19.472;2023-07-24T12:37:31;4.07;;;2.90;;
18411;SDS011;27097;51.738;19.472;2023-07-24T12:39:58;5.03;;;3.10;;
18411;SDS011;27097;51.738;19.472;2023-07-24T12:42:27;4.55;;;3.10;;
18411;SDS011;27097;51.738;19.472;2023-07-24T12:44:54;4.55;;;3.10;;
18411;SDS011;27097;51.738;19.472;2023-07-24T12:47:23;4.07;;;2.95;;
18411;SDS011;27097;51.738;19.472;2023-07-24T12:49:51;6.18;;;3.20;;
18411;SDS011;27097;51.738;19.472;2023-07-24T12:52:20;4.82;;;3.25;;
18411;SDS011;27097;51.738;19.472;2023-07-24T12:54:48;6.95;;;3.10;;
18411;SDS011;27097;51.738;19.472;2023-07-24T12:57:15;4.10;;;3.00;;
18411;SDS011;27097;51.738;19.472;2023-07-24T12:59:48;6.10;;;3.35;;
18411;SDS011;27097;51.738;19.472;2023-07-24T13:02:15;4.53;;;3.10;;
18411;SDS011;27097;51.738;19.472;2023-07-24T13:04:42;4.32;;;3.10;;
18411;SDS011;27097;51.738;19.472;2023-07-24T13:07:10;7.55;;;3.50;;
18411;SDS011;27097;51.738;19.472;2023-07-24T13:09:38;4.88;;;3.58;;
18411;SDS011;27097;51.738;19.472;2023-07-24T13:12:05;7.13;;;3.63;;
18411;SDS011;27097;51.738;19.472;2023-07-24T13:14:34;5.15;;;3.30;;
18411;SDS011;27097;51.738;19.472;2023-07-24T13:17:03;4.55;;;3.13;;
18411;SDS011;27097;51.738;19.472;2023-07-24T13:19:32;6.03;;;3.60;;
18411;SDS011;27097;51.738;19.472;2023-07-24T13:22:00;7.18;;;3.40;;
18411;SDS011;27097;51.738;19.472;2023-07-24T13:24:27;6.45;;;3.65;;
18411;SDS011;27097;51.738;19.472;2023-07-24T13:26:54;5.18;;;3.35;;
18411;SDS011;27097;51.738;19.472;2023-07-24T13:29:21;5.03;;;3.08;;
18411;SDS011;27097;51.738;19.472;2023-07-24T13:31:49;5.68;;;3.70;;
18411;SDS011;27097;51.738;19.472;2023-07-24T13:34:18;6.05;;;3.60;;
18411;SDS011;27097;51.738;19.472;2023-07-24T13:36:45;8.60;;;3.47;;
18411;SDS011;27097;51.738;19.472;2023-07-24T13:39:12;5.07;;;3.38;;
18411;SDS011;27097;51.738;19.472;2023-07-24T13:41:39;9.32;;;3.67;;
18411;SDS011;27097;51.738;19.472;2023-07-24T13:44:07;5.40;;;3.70;;
18411;SDS011;27097;51.738;19.472;2023-07-24T13:46:34;5.00;;;3.00;;
18411;SDS011;27097;51.738;19.472;2023-07-24T13:49:01;6.15;;;3.65;;
18411;SDS011;27097;51.738;19.472;2023-07-24T13:51:32;6.93;;;4.03;;
18411;SDS011;27097;51.738;19.472;2023-07-24T13:54:00;6.05;;;4.18;;
18411;SDS011;27097;51.738;19.472;2023-07-24T13:56:27;5.72;;;3.60;;
18411;SDS011;27097;51.738;19.472;2023-07-24T13:58:56;7.05;;;3.65;;
18411;SDS011;27097;51.738;19.472;2023-07-24T14:01:23;6.10;;;3.70;;
18411;SDS011;27097;51.738;19.472;2023-07-24T14:03:50;7.18;;;3.50;;
18411;SDS011;27097;51.738;19.472;2023-07-24T14:06:17;5.93;;;3.85;;
18411;SDS011;27097;51.738;19.472;2023-07-24T14:08:46;5.57;;;3.55;;
18411;SDS011;27097;51.738;19.472;2023-07-24T14:11:13;5.80;;;3.70;;
18411;SDS011;27097;51.738;19.472;2023-07-24T14:13:42;6.07;;;3.90;;
18411;SDS011;27097;51.738;19.472;2023-07-24T14:16:11;6.25;;;3.80;;
18411;SDS011;27097;51.738;19.472;2023-07-24T14:18:38;5.78;;;3.72;;
18411;SDS011;27097;51.738;19.472;2023-07-24T14:21:05;5.57;;;3.90;;
18411;SDS011;27097;51.738;19.472;2023-07-24T14:23:32;6.40;;;3.90;;
18411;SDS011;27097;51.738;19.472;2023-07-24T14:26:00;6.85;;;3.83;;
18411;SDS011;27097;51.738;19.472;2023-07-24T14:28:27;6.50;;;4.00;;
18411;SDS011;27097;51.738;19.472;2023-07-24T14:30:54;5.82;;;3.70;;
18411;SDS011;27097;51.738;19.472;2023-07-24T14:33:21;5.50;;;3.80;;
18411;SDS011;27097;51.738;19.472;2023-07-24T14:35:48;6.60;;;3.78;;
18411;SDS011;27097;51.738;19.472;2023-07-24T14:38:15;6.75;;;4.03;;
18411;SDS011;27097;51.738;19.472;2023-07-24T14:40:42;5.68;;;3.90;;
18411;SDS011;27097;51.738;19.472;2023-07-24T14:43:10;7.55;;;4.18;;
18411;SDS011;27097;51.738;19.472;2023-07-24T14:45:37;8.27;;;4.10;;